createdAt,value
2023-02-15T00:01:10.487Z,29.47
2023-02-15T00:04:46.060Z,30.43
2023-02-15T00:08:07.533Z,36.53
2023-02-15T00:11:41.579Z,31.47
2023-02-15T00:15:03.231Z,28.63
2023-02-15T00:18:26.301Z,29.00
2023-02-15T00:21:48.854Z,33.97
2023-02-15T00:25:12.625Z,28.73
2023-02-15T00:28:34.373Z,30.33
2023-02-15T00:31:56.331Z,32.63
2023-02-15T00:35:20.645Z,31.77
2023-02-15T00:38:42.407Z,33.83
2023-02-15T00:42:03.655Z,32.07
2023-02-15T00:45:25.193Z,30.70
2023-02-15T00:48:47.049Z,31.47
2023-02-15T00:52:09.747Z,34.00
2023-02-15T00:55:31.436Z,28.93
2023-02-15T00:58:53.228Z,34.10
2023-02-15T01:02:14.939Z,31.93
2023-02-15T01:05:36.582Z,28.87
2023-02-15T01:09:00.639Z,31.03
2023-02-15T01:12:22.323Z,36.03
2023-02-15T01:15:44.652Z,30.43
2023-02-15T01:19:07.086Z,28.37
2023-02-15T01:22:28.593Z,29.10
2023-02-15T01:25:52.172Z,29.90
2023-02-15T01:29:14.093Z,32.53
2023-02-15T01:32:35.948Z,36.43
2023-02-15T01:36:01.489Z,36.27
2023-02-15T01:39:23.380Z,32.80
2023-02-15T01:42:52.831Z,34.23
2023-02-15T01:46:16.072Z,29.83
2023-02-15T01:49:37.556Z,30.93
2023-02-15T01:53:04.107Z,31.93
2023-02-15T01:56:29.904Z,29.53
2023-02-15T01:59:57.826Z,33.90
2023-02-15T02:03:22.738Z,34.43
2023-02-15T02:06:46.264Z,34.13
2023-02-15T02:10:11.506Z,31.13
2023-02-15T02:13:33.012Z,32.43
2023-02-15T02:17:02.360Z,31.33
2023-02-15T02:21:03.404Z,31.43
2023-02-15T02:24:49.811Z,26.60
2023-02-15T02:28:32.844Z,28.27
2023-02-15T02:32:15.146Z,28.27
2023-02-15T02:35:46.688Z,27.87
2023-02-15T02:39:16.135Z,31.23
2023-02-15T02:42:42.381Z,28.47
2023-02-15T02:46:12.170Z,23.90
2023-02-15T02:49:35.956Z,27.00
2023-02-15T02:53:00.935Z,24.20
2023-02-15T02:56:27.194Z,28.77
2023-02-15T02:59:51.852Z,29.27
2023-02-15T03:03:17.999Z,26.27
2023-02-15T03:06:44.606Z,27.00
2023-02-15T03:10:10.237Z,30.13
2023-02-15T03:13:32.606Z,29.93
2023-02-15T03:16:56.131Z,30.97
2023-02-15T03:20:22.449Z,27.87
2023-02-15T03:23:44.271Z,34.20
2023-02-15T03:27:12.445Z,27.90
2023-02-15T03:30:36.574Z,31.03
2023-02-15T03:34:02.115Z,29.97
2023-02-15T03:37:31.192Z,28.83
2023-02-15T03:41:13.442Z,30.27
2023-02-15T03:44:43.748Z,25.50
2023-02-15T03:48:09.321Z,28.87
2023-02-15T03:51:39.056Z,31.90
2023-02-15T03:55:01.098Z,38.80
2023-02-15T03:58:40.361Z,33.77
2023-02-15T04:02:17.712Z,38.63
2023-02-15T04:05:39.831Z,37.87
2023-02-15T04:09:18.628Z,34.30
2023-02-15T04:12:40.190Z,39.77
2023-02-15T04:16:08.514Z,32.67
2023-02-15T04:19:53.394Z,36.40
2023-02-15T04:23:32.013Z,37.40
2023-02-15T04:26:54.591Z,35.20
2023-02-15T04:30:19.328Z,39.23
2023-02-15T04:33:40.986Z,40.30
2023-02-15T04:37:04.067Z,38.60
2023-02-15T04:40:25.757Z,35.10
2023-02-15T04:43:47.562Z,36.87
2023-02-15T04:47:09.338Z,42.03
2023-02-15T04:50:31.222Z,37.87
2023-02-15T04:53:54.483Z,35.30
2023-02-15T04:57:16.279Z,35.27
2023-02-15T05:00:37.831Z,39.70
2023-02-15T05:03:59.649Z,34.53
2023-02-15T05:07:22.343Z,39.80
2023-02-15T05:10:45.278Z,36.87
2023-02-15T05:14:07.191Z,40.77
2023-02-15T05:17:28.859Z,42.70
2023-02-15T05:20:50.983Z,41.77
2023-02-15T05:24:26.683Z,38.67
2023-02-15T05:28:06.973Z,43.40
2023-02-15T05:31:28.618Z,45.00
2023-02-15T05:34:50.036Z,39.97
2023-02-15T05:38:11.883Z,43.80
2023-02-15T05:41:33.143Z,45.50
2023-02-15T05:44:56.393Z,39.33
2023-02-15T05:48:19.367Z,42.23
2023-02-15T05:51:40.944Z,42.50
2023-02-15T05:55:03.720Z,39.27
2023-02-15T05:58:25.420Z,41.60
2023-02-15T06:01:48.653Z,37.47
2023-02-15T06:05:10.459Z,38.23
2023-02-15T06:08:32.460Z,41.63
2023-02-15T06:11:53.895Z,39.40
2023-02-15T06:15:15.035Z,44.50
2023-02-15T06:18:37.636Z,40.40
2023-02-15T06:21:59.233Z,37.63
2023-02-15T06:25:21.989Z,39.77
2023-02-15T06:28:43.815Z,38.20
2023-02-15T06:32:05.802Z,40.23
2023-02-15T06:35:29.656Z,38.97
2023-02-15T06:38:51.271Z,44.07
2023-02-15T06:42:13.642Z,36.77
2023-02-15T06:45:36.190Z,36.47
2023-02-15T06:48:58.001Z,38.67
2023-02-15T06:52:21.275Z,43.17
2023-02-15T06:55:43.230Z,51.97
2023-02-15T06:59:05.118Z,40.90
2023-02-15T07:02:26.925Z,43.50
2023-02-15T07:05:49.801Z,40.00
2023-02-15T07:09:13.712Z,38.67
2023-02-15T07:12:45.530Z,40.73
2023-02-15T07:16:07.135Z,39.07
2023-02-15T07:19:28.955Z,41.37
2023-02-15T07:22:51.425Z,45.47
2023-02-15T07:26:14.947Z,44.73
2023-02-15T07:29:36.753Z,44.67
2023-02-15T07:33:15.748Z,49.03
2023-02-15T07:36:37.426Z,43.53
2023-02-15T07:39:59.155Z,47.03
2023-02-15T07:43:22.076Z,46.33
2023-02-15T07:46:44.010Z,53.27
2023-02-15T07:50:06.881Z,66.10
2023-02-15T07:53:29.328Z,46.27
2023-02-15T07:56:50.955Z,52.43
2023-02-15T08:00:17.723Z,56.47
2023-02-15T08:03:39.620Z,58.43
2023-02-15T08:07:01.462Z,69.93
2023-02-15T08:10:42.828Z,61.20
2023-02-15T08:14:06.361Z,55.93
2023-02-15T08:17:29.086Z,57.23
2023-02-15T08:20:52.160Z,62.03
2023-02-15T08:24:18.088Z,58.13
2023-02-15T08:27:39.776Z,56.67
2023-02-15T08:31:06.851Z,53.13
2023-02-15T08:34:31.391Z,62.67
2023-02-15T08:37:53.574Z,58.63
2023-02-15T08:41:17.479Z,59.43
2023-02-15T08:44:39.065Z,63.93
2023-02-15T08:48:00.900Z,64.80
2023-02-15T08:51:25.204Z,69.70
2023-02-15T08:54:46.874Z,70.30
2023-02-15T08:58:08.638Z,74.57
2023-02-15T09:01:32.062Z,76.73
2023-02-15T09:04:53.857Z,78.03
2023-02-15T09:08:17.350Z,68.23
2023-02-15T09:11:40.732Z,74.30
2023-02-15T09:15:02.466Z,71.93
2023-02-15T09:18:24.198Z,77.17
2023-02-15T09:21:46.046Z,72.60
2023-02-15T09:25:09.955Z,67.27
2023-02-15T09:28:33.436Z,63.73
2023-02-15T09:31:55.565Z,61.53
2023-02-15T09:35:16.841Z,60.37
2023-02-15T09:38:38.591Z,59.43
2023-02-15T09:42:34.991Z,62.03
2023-02-15T09:46:13.398Z,60.97
2023-02-15T09:49:47.659Z,59.63
2023-02-15T09:53:31.496Z,55.60
2023-02-15T09:56:58.180Z,60.37
2023-02-15T10:00:31.593Z,56.90
2023-02-15T10:04:14.573Z,65.23
2023-02-15T10:08:01.640Z,60.73
2023-02-15T10:11:41.523Z,63.53
2023-02-15T10:15:30.930Z,65.63
2023-02-15T10:19:10.537Z,62.70
2023-02-15T10:22:44.211Z,67.50
2023-02-15T10:26:15.062Z,70.77
2023-02-15T10:29:38.611Z,71.27
2023-02-15T10:33:03.020Z,61.47
2023-02-15T10:36:40.193Z,66.47
2023-02-15T10:40:11.198Z,69.87
2023-02-15T10:43:46.475Z,63.93
2023-02-15T10:47:32.102Z,63.10
2023-02-15T10:50:56.830Z,51.63
2023-02-15T10:54:30.519Z,55.77
2023-02-15T10:58:01.647Z,52.57
2023-02-15T11:01:29.788Z,51.20
2023-02-15T11:05:04.535Z,53.87
2023-02-15T11:08:27.488Z,49.17
2023-02-15T11:11:53.161Z,49.93
2023-02-15T11:15:21.761Z,52.87
2023-02-15T11:18:48.507Z,49.47
2023-02-15T11:22:12.327Z,47.53
2023-02-15T11:25:36.343Z,51.17
2023-02-15T11:29:03.717Z,47.57
2023-02-15T11:32:28.309Z,53.23
2023-02-15T11:35:52.975Z,49.30
2023-02-15T11:39:18.348Z,50.60
2023-02-15T11:42:40.548Z,44.20
2023-02-15T11:46:03.604Z,50.00
2023-02-15T11:49:29.561Z,48.93
2023-02-15T11:52:51.947Z,52.73
2023-02-15T11:56:17.271Z,53.53
2023-02-15T11:59:41.949Z,50.73
2023-02-15T12:03:11.837Z,50.07
2023-02-15T12:06:36.258Z,50.33
2023-02-15T12:10:05.321Z,45.17
2023-02-15T12:13:27.097Z,47.30
2023-02-15T12:16:51.300Z,50.87
2023-02-15T12:20:29.869Z,50.47
2023-02-15T12:23:54.407Z,49.37
2023-02-15T12:27:19.456Z,43.43
2023-02-15T12:30:44.928Z,49.27
2023-02-15T12:34:14.135Z,44.93
2023-02-15T12:37:37.281Z,39.40
2023-02-15T12:41:02.324Z,45.00
2023-02-15T12:44:27.022Z,43.27
2023-02-15T12:47:50.128Z,44.37
2023-02-15T12:51:17.307Z,60.43
2023-02-15T12:54:42.455Z,60.40
2023-02-15T12:58:18.128Z,59.80
2023-02-15T13:01:41.326Z,54.10
2023-02-15T13:05:17.353Z,57.70
2023-02-15T13:08:48.193Z,55.10
2023-02-15T13:12:20.863Z,49.93
2023-02-15T13:15:43.711Z,51.90
2023-02-15T13:19:09.357Z,49.63
2023-02-15T13:22:37.447Z,47.60
2023-02-15T13:26:04.283Z,48.80
2023-02-15T13:29:30.315Z,49.40
2023-02-15T13:32:54.787Z,46.80
2023-02-15T13:36:23.108Z,52.53
2023-02-15T13:39:51.521Z,70.27
2023-02-15T13:43:28.323Z,75.37
2023-02-15T13:47:08.721Z,72.53
2023-02-15T13:51:00.051Z,67.37
2023-02-15T13:54:55.303Z,70.53
2023-02-15T13:58:34.683Z,76.97
2023-02-15T14:02:00.306Z,74.50
2023-02-15T14:05:42.846Z,72.13
2023-02-15T14:09:16.760Z,65.60
2023-02-15T14:13:01.475Z,61.43
2023-02-15T14:16:33.838Z,72.03
2023-02-15T14:20:03.412Z,71.40
2023-02-15T14:23:37.221Z,69.60
2023-02-15T14:27:09.457Z,71.20
2023-02-15T14:30:35.583Z,67.60
2023-02-15T14:33:59.048Z,72.43
2023-02-15T14:37:31.309Z,65.33
2023-02-15T14:41:04.888Z,70.10
2023-02-15T14:44:38.697Z,71.77
2023-02-15T14:48:09.975Z,71.57
2023-02-15T14:52:03.232Z,73.97
2023-02-15T14:55:38.713Z,69.10
2023-02-15T14:59:17.300Z,70.57
2023-02-15T15:02:49.669Z,70.77
2023-02-15T15:06:27.947Z,75.23
2023-02-15T15:10:05.175Z,81.13
2023-02-15T15:13:54.818Z,76.40
2023-02-15T15:17:57.055Z,73.30
2023-02-15T15:21:51.865Z,74.97
2023-02-15T15:25:45.648Z,72.80
2023-02-15T15:29:09.325Z,67.87
2023-02-15T15:32:35.448Z,66.13
2023-02-15T15:36:14.080Z,68.60
2023-02-15T15:40:00.314Z,67.20
2023-02-15T15:43:55.651Z,66.60
2023-02-15T15:47:34.324Z,67.00
2023-02-15T15:50:59.851Z,73.40
2023-02-15T15:54:23.539Z,68.67
2023-02-15T15:57:49.768Z,68.37
2023-02-15T16:01:14.680Z,64.93
2023-02-15T16:04:37.717Z,67.53
2023-02-15T16:07:59.361Z,70.30
2023-02-15T16:11:24.962Z,68.83
2023-02-15T16:14:50.019Z,74.60
2023-02-15T16:18:17.251Z,62.03
2023-02-15T16:21:40.165Z,63.83
2023-02-15T16:25:24.229Z,68.50
2023-02-15T16:28:50.857Z,64.80
2023-02-15T16:32:21.297Z,58.20
2023-02-15T16:35:56.053Z,62.83
2023-02-15T16:39:22.621Z,59.27
2023-02-15T16:42:44.187Z,60.03
2023-02-15T16:46:08.439Z,55.90
2023-02-15T16:49:31.704Z,54.90
2023-02-15T16:52:54.129Z,62.53
2023-02-15T16:56:24.153Z,78.27
2023-02-15T16:59:49.954Z,97.90
2023-02-15T17:03:24.136Z,70.93
2023-02-15T17:07:00.607Z,80.40
2023-02-15T17:10:32.083Z,66.27
2023-02-15T17:14:16.294Z,68.33
2023-02-15T17:17:38.125Z,93.97
2023-02-15T17:21:02.518Z,102.20
2023-02-15T17:24:33.620Z,67.67
2023-02-15T17:27:57.455Z,55.73
2023-02-15T17:31:22.470Z,64.73
2023-02-15T17:34:52.023Z,81.53
2023-02-15T17:38:20.855Z,80.07
2023-02-15T17:41:43.599Z,75.47
2023-02-15T17:45:06.047Z,75.53
2023-02-15T17:48:34.162Z,64.23
2023-02-15T17:51:56.136Z,80.23
2023-02-15T17:55:39.247Z,55.60
2023-02-15T17:59:01.169Z,66.40
2023-02-15T18:02:40.139Z,47.53
2023-02-15T18:06:20.831Z,59.83
2023-02-15T18:09:59.901Z,69.47
2023-02-15T18:13:21.326Z,67.27
2023-02-15T18:16:45.873Z,48.27
2023-02-15T18:20:18.076Z,53.67
2023-02-15T18:23:42.244Z,69.43
2023-02-15T18:27:05.521Z,61.43
2023-02-15T18:30:27.892Z,57.50
2023-02-15T18:33:51.660Z,119.23
2023-02-15T18:37:17.310Z,65.40
2023-02-15T18:40:40.481Z,93.97
2023-02-15T18:44:02.297Z,49.20
2023-02-15T18:47:24.206Z,50.07
2023-02-15T18:50:46.342Z,84.27
2023-02-15T18:54:17.167Z,63.53
2023-02-15T18:57:41.704Z,80.80
2023-02-15T19:01:03.627Z,57.87
2023-02-15T19:04:25.963Z,49.70
2023-02-15T19:07:49.315Z,45.17
2023-02-15T19:11:15.914Z,43.17
2023-02-15T19:14:39.018Z,43.23
2023-02-15T19:18:00.719Z,42.83
2023-02-15T19:22:06.436Z,43.10
2023-02-15T19:25:31.123Z,45.40
2023-02-15T19:28:53.308Z,48.93
2023-02-15T19:32:16.476Z,39.07
2023-02-15T19:35:38.196Z,35.67
2023-02-15T19:38:59.951Z,33.87
2023-02-15T19:42:24.547Z,40.17
2023-02-15T19:45:46.755Z,49.47
2023-02-15T19:49:11.727Z,42.23
2023-02-15T19:52:33.419Z,41.53
2023-02-15T19:55:54.959Z,37.93
2023-02-15T19:59:23.911Z,36.13
2023-02-15T20:02:45.586Z,42.17
2023-02-15T20:06:14.745Z,43.57
2023-02-15T20:09:40.689Z,40.77
2023-02-15T20:13:03.375Z,41.10
2023-02-15T20:16:26.388Z,44.83
2023-02-15T20:19:48.086Z,41.60
2023-02-15T20:23:19.170Z,41.27
2023-02-15T20:26:40.632Z,43.67
2023-02-15T20:30:02.340Z,39.63
2023-02-15T20:33:24.569Z,41.27
2023-02-15T20:36:45.972Z,40.20
2023-02-15T20:40:15.332Z,39.10
2023-02-15T20:43:37.016Z,39.73
2023-02-15T20:47:01.473Z,40.40
2023-02-15T20:50:25.859Z,41.53
2023-02-15T20:53:47.817Z,39.30
2023-02-15T20:57:13.047Z,42.77
2023-02-15T21:00:34.825Z,41.93
2023-02-15T21:03:56.384Z,41.43
2023-02-15T21:07:20.081Z,41.23
2023-02-15T21:10:45.374Z,42.37
2023-02-15T21:14:16.544Z,47.30
2023-02-15T21:17:38.292Z,45.10
2023-02-15T21:21:01.679Z,50.70
2023-02-15T21:24:25.761Z,52.10
2023-02-15T21:27:47.305Z,55.23
2023-02-15T21:31:17.058Z,50.20
2023-02-15T21:34:39.894Z,53.53
2023-02-15T21:38:01.745Z,52.63
2023-02-15T21:41:42.963Z,57.70
2023-02-15T21:45:25.211Z,57.43
2023-02-15T21:48:48.104Z,58.53
2023-02-15T21:52:12.765Z,61.87
2023-02-15T21:55:34.671Z,53.47
2023-02-15T21:58:56.244Z,47.33
2023-02-15T22:02:29.354Z,47.07
2023-02-15T22:05:52.762Z,40.87
2023-02-15T22:09:17.659Z,43.50
2023-02-15T22:12:40.171Z,46.23
2023-02-15T22:16:03.045Z,43.30
2023-02-15T22:19:24.951Z,45.63
2023-02-15T22:22:48.165Z,46.73
2023-02-15T22:26:16.463Z,41.13
2023-02-15T22:29:38.497Z,42.73
2023-02-15T22:33:02.203Z,44.80
2023-02-15T22:36:25.639Z,39.73
2023-02-15T22:39:48.568Z,42.27
2023-02-15T22:43:22.572Z,40.87
2023-02-15T22:46:44.358Z,47.57
2023-02-15T22:50:16.901Z,42.40
2023-02-15T22:53:38.453Z,44.00
2023-02-15T22:57:01.770Z,46.93
2023-02-15T23:00:26.939Z,45.23
2023-02-15T23:03:48.426Z,41.33
2023-02-15T23:07:14.483Z,42.47
2023-02-15T23:10:36.214Z,42.37
2023-02-15T23:13:59.337Z,37.63
2023-02-15T23:17:20.649Z,43.63
2023-02-15T23:20:42.426Z,43.50
2023-02-15T23:24:21.140Z,38.73
2023-02-15T23:27:57.788Z,40.27
2023-02-15T23:31:22.884Z,41.03
2023-02-15T23:34:44.649Z,39.50
2023-02-15T23:38:18.132Z,39.40
2023-02-15T23:41:40.141Z,41.53
2023-02-15T23:45:03.332Z,43.43
2023-02-15T23:48:32.785Z,40.80
2023-02-15T23:51:56.040Z,43.77
2023-02-15T23:55:18.188Z,39.33
2023-02-15T23:58:42.048Z,41.80
